sensor_id;sensor_type;location;lat;lon;timestamp;pressure;altitude;pressure_sealevel;temperature;humidity
12051;BME280;6086;43.546;26.474;2022-07-29T00:00:13;99261.56;;;21.23;100.00
12051;BME280;6086;43.546;26.474;2022-07-29T00:02:40;99253.09;;;21.19;100.00
12051;BME280;6086;43.546;26.474;2022-07-29T00:05:08;99253.38;;;21.18;100.00
12051;BME280;6086;43.546;26.474;2022-07-29T00:07:36;99258.28;;;21.21;100.00
12051;BME280;6086;43.546;26.474;2022-07-29T00:10:05;99255.56;;;21.16;100.00
12051;BME280;6086;43.546;26.474;2022-07-29T00:12:32;99253.88;;;21.10;100.00
12051;BME280;6086;43.546;26.474;2022-07-29T00:14:59;99245.38;;;21.01;100.00
12051;BME280;6086;43.546;26.474;2022-07-29T00:17:26;99243.97;;;20.89;100.00
12051;BME280;6086;43.546;26.474;2022-07-29T00:19:53;99245.50;;;20.75;100.00
12051;BME280;6086;43.546;26.474;2022-07-29T00:22:20;99250.06;;;20.64;100.00
12051;BME280;6086;43.546;26.474;2022-07-29T00:24:47;99238.59;;;20.57;100.00
12051;BME280;6086;43.546;26.474;2022-07-29T00:27:16;99237.44;;;20.48;100.00
12051;BME280;6086;43.546;26.474;2022-07-29T00:29:43;99243.47;;;20.50;100.00
12051;BME280;6086;43.546;26.474;2022-07-29T00:32:10;99246.16;;;20.45;100.00
12051;BME280;6086;43.546;26.474;2022-07-29T00:34:37;99240.94;;;20.39;100.00
12051;BME280;6086;43.546;26.474;2022-07-29T00:37:22;99234.91;;;20.32;100.00
12051;BME280;6086;43.546;26.474;2022-07-29T00:39:48;99244.88;;;20.21;100.00
12051;BME280;6086;43.546;26.474;2022-07-29T00:42:17;99243.16;;;20.10;100.00
12051;BME280;6086;43.546;26.474;2022-07-29T00:44:44;99246.09;;;20.04;100.00
12051;BME280;6086;43.546;26.474;2022-07-29T00:47:11;99242.22;;;20.00;100.00
12051;BME280;6086;43.546;26.474;2022-07-29T00:49:39;99245.22;;;19.98;100.00
12051;BME280;6086;43.546;26.474;2022-07-29T00:52:08;99243.22;;;19.89;100.00
12051;BME280;6086;43.546;26.474;2022-07-29T00:54:37;99238.56;;;19.84;100.00
12051;BME280;6086;43.546;26.474;2022-07-29T00:57:06;99242.34;;;19.83;100.00
12051;BME280;6086;43.546;26.474;2022-07-29T00:59:35;99239.94;;;19.87;100.00
12051;BME280;6086;43.546;26.474;2022-07-29T01:02:03;99242.19;;;19.95;100.00
12051;BME280;6086;43.546;26.474;2022-07-29T01:04:31;99244.06;;;19.89;100.00
12051;BME280;6086;43.546;26.474;2022-07-29T01:06:59;99239.72;;;19.93;100.00
12051;BME280;6086;43.546;26.474;2022-07-29T01:09:27;99258.97;;;19.87;100.00
12051;BME280;6086;43.546;26.474;2022-07-29T01:11:55;99253.78;;;19.85;100.00
12051;BME280;6086;43.546;26.474;2022-07-29T01:14:22;99240.75;;;19.87;100.00
12051;BME280;6086;43.546;26.474;2022-07-29T01:16:53;99249.22;;;19.91;100.00
12051;BME280;6086;43.546;26.474;2022-07-29T01:19:42;99251.69;;;19.92;100.00
12051;BME280;6086;43.546;26.474;2022-07-29T01:22:24;99248.41;;;19.90;100.00
12051;BME280;6086;43.546;26.474;2022-07-29T01:25:12;99252.69;;;19.81;100.00
12051;BME280;6086;43.546;26.474;2022-07-29T01:27:51;99255.69;;;19.85;100.00
12051;BME280;6086;43.546;26.474;2022-07-29T01:30:29;99246.69;;;19.79;100.00
12051;BME280;6086;43.546;26.474;2022-07-29T01:33:00;99249.41;;;19.79;100.00
12051;BME280;6086;43.546;26.474;2022-07-29T01:35:32;99243.69;;;19.81;100.00
12051;BME280;6086;43.546;26.474;2022-07-29T01:38:04;99246.97;;;19.83;100.00
12051;BME280;6086;43.546;26.474;2022-07-29T01:40:35;99246.97;;;19.83;100.00
12051;BME280;6086;43.546;26.474;2022-07-29T01:43:09;99244.25;;;19.83;100.00
12051;BME280;6086;43.546;26.474;2022-07-29T01:45:41;99255.19;;;19.88;100.00
12051;BME280;6086;43.546;26.474;2022-07-29T01:48:12;99252.91;;;19.80;100.00
12051;BME280;6086;43.546;26.474;2022-07-29T01:50:48;99259.97;;;19.28;100.00
12051;BME280;6086;43.546;26.474;2022-07-29T01:53:23;99250.69;;;18.81;100.00
12051;BME280;6086;43.546;26.474;2022-07-29T01:55:52;99229.69;;;18.55;100.00
12051;BME280;6086;43.546;26.474;2022-07-29T01:58:21;99234.56;;;18.53;100.00
12051;BME280;6086;43.546;26.474;2022-07-29T02:00:51;99231.28;;;18.51;100.00
12051;BME280;6086;43.546;26.474;2022-07-29T02:03:19;99223.44;;;18.55;100.00
12051;BME280;6086;43.546;26.474;2022-07-29T02:05:48;99234.88;;;18.57;100.00
12051;BME280;6086;43.546;26.474;2022-07-29T02:08:16;99233.84;;;18.63;100.00
12051;BME280;6086;43.546;26.474;2022-07-29T02:10:45;99223.53;;;18.60;100.00
12051;BME280;6086;43.546;26.474;2022-07-29T02:13:15;99223.28;;;18.61;100.00
12051;BME280;6086;43.546;26.474;2022-07-29T02:15:44;99227.22;;;18.54;100.00
12051;BME280;6086;43.546;26.474;2022-07-29T02:18:16;99225.34;;;18.54;100.00
12051;BME280;6086;43.546;26.474;2022-07-29T02:20:47;99212.59;;;18.55;100.00
12051;BME280;6086;43.546;26.474;2022-07-29T02:23:18;99222.78;;;18.64;100.00
12051;BME280;6086;43.546;26.474;2022-07-29T02:25:48;99226.59;;;18.68;100.00
12051;BME280;6086;43.546;26.474;2022-07-29T02:28:16;99221.50;;;18.72;100.00
12051;BME280;6086;43.546;26.474;2022-07-29T02:30:45;99220.19;;;18.74;100.00
12051;BME280;6086;43.546;26.474;2022-07-29T02:33:15;99229.84;;;18.65;100.00
12051;BME280;6086;43.546;26.474;2022-07-29T02:35:44;99221.69;;;18.65;100.00
12051;BME280;6086;43.546;26.474;2022-07-29T02:38:13;99229.28;;;18.63;100.00
12051;BME280;6086;43.546;26.474;2022-07-29T02:40:58;99228.75;;;18.66;100.00
12051;BME280;6086;43.546;26.474;2022-07-29T02:43:28;99237.66;;;18.62;100.00
12051;BME280;6086;43.546;26.474;2022-07-29T02:45:58;99240.63;;;18.44;100.00
12051;BME280;6086;43.546;26.474;2022-07-29T02:48:34;99245.34;;;18.32;100.00
12051;BME280;6086;43.546;26.474;2022-07-29T02:51:07;99249.53;;;18.39;100.00
12051;BME280;6086;43.546;26.474;2022-07-29T02:53:36;99244.34;;;18.38;100.00
12051;BME280;6086;43.546;26.474;2022-07-29T02:56:09;99241.56;;;18.33;100.00
12051;BME280;6086;43.546;26.474;2022-07-29T02:58:40;99242.06;;;18.30;100.00
12051;BME280;6086;43.546;26.474;2022-07-29T03:01:11;99241.00;;;18.31;100.00
12051;BME280;6086;43.546;26.474;2022-07-29T03:03:42;99237.94;;;18.27;100.00
12051;BME280;6086;43.546;26.474;2022-07-29T03:06:12;99241.00;;;18.31;100.00
12051;BME280;6086;43.546;26.474;2022-07-29T03:08:40;99244.03;;;18.34;100.00
12051;BME280;6086;43.546;26.474;2022-07-29T03:11:08;99236.94;;;18.33;100.00
12051;BME280;6086;43.546;26.474;2022-07-29T03:13:36;99242.22;;;18.40;100.00
12051;BME280;6086;43.546;26.474;2022-07-29T03:16:04;99238.13;;;18.37;100.00
12051;BME280;6086;43.546;26.474;2022-07-29T03:18:31;99234.91;;;18.40;100.00
12051;BME280;6086;43.546;26.474;2022-07-29T03:21:01;99252.31;;;18.44;100.00
12051;BME280;6086;43.546;26.474;2022-07-29T03:23:29;99252.00;;;18.41;100.00
12051;BME280;6086;43.546;26.474;2022-07-29T03:25:56;99257.41;;;18.41;100.00
12051;BME280;6086;43.546;26.474;2022-07-29T03:28:23;99268.44;;;18.34;100.00
12051;BME280;6086;43.546;26.474;2022-07-29T03:30:52;99252.66;;;18.31;100.00
12051;BME280;6086;43.546;26.474;2022-07-29T03:33:20;99254.53;;;18.14;100.00
12051;BME280;6086;43.546;26.474;2022-07-29T03:35:47;99264.47;;;18.09;100.00
12051;BME280;6086;43.546;26.474;2022-07-29T03:38:15;99262.16;;;18.01;100.00
12051;BME280;6086;43.546;26.474;2022-07-29T03:40:46;99265.25;;;17.93;100.00
12051;BME280;6086;43.546;26.474;2022-07-29T03:43:17;99255.84;;;17.95;100.00
12051;BME280;6086;43.546;26.474;2022-07-29T03:45:48;99253.56;;;18.04;100.00
12051;BME280;6086;43.546;26.474;2022-07-29T03:48:17;99251.22;;;18.29;100.00
12051;BME280;6086;43.546;26.474;2022-07-29T03:50:46;99251.09;;;18.35;100.00
12051;BME280;6086;43.546;26.474;2022-07-29T03:53:13;99256.09;;;18.43;100.00
12051;BME280;6086;43.546;26.474;2022-07-29T03:55:44;99258.69;;;18.55;100.00
12051;BME280;6086;43.546;26.474;2022-07-29T03:58:12;99255.88;;;18.66;100.00
12051;BME280;6086;43.546;26.474;2022-07-29T04:00:40;99260.66;;;18.76;100.00
12051;BME280;6086;43.546;26.474;2022-07-29T04:03:08;99255.34;;;18.85;100.00
12051;BME280;6086;43.546;26.474;2022-07-29T04:05:36;99265.97;;;19.08;100.00
12051;BME280;6086;43.546;26.474;2022-07-29T04:08:14;99265.06;;;19.46;100.00
12051;BME280;6086;43.546;26.474;2022-07-29T04:10:43;99263.22;;;20.04;100.00
12051;BME280;6086;43.546;26.474;2022-07-29T04:13:10;99281.88;;;20.54;100.00
12051;BME280;6086;43.546;26.474;2022-07-29T04:27:30;99304.94;;;24.02;100.00
12051;BME280;6086;43.546;26.474;2022-07-29T04:29:56;99305.53;;;24.33;100.00
12051;BME280;6086;43.546;26.474;2022-07-29T04:32:24;99318.78;;;24.59;100.00
12051;BME280;6086;43.546;26.474;2022-07-29T04:34:51;99312.66;;;24.67;100.00
12051;BME280;6086;43.546;26.474;2022-07-29T04:37:18;99320.69;;;24.59;100.00
12051;BME280;6086;43.546;26.474;2022-07-29T04:39:45;99321.56;;;24.49;100.00
12051;BME280;6086;43.546;26.474;2022-07-29T04:42:12;99317.44;;;24.57;100.00
12051;BME280;6086;43.546;26.474;2022-07-29T04:44:40;99318.97;;;24.96;100.00
12051;BME280;6086;43.546;26.474;2022-07-29T04:47:08;99318.19;;;24.62;100.00
12051;BME280;6086;43.546;26.474;2022-07-29T04:49:37;99325.94;;;25.12;100.00
12051;BME280;6086;43.546;26.474;2022-07-29T04:52:05;99332.63;;;25.25;100.00
12051;BME280;6086;43.546;26.474;2022-07-29T04:54:32;99332.44;;;25.21;100.00
12051;BME280;6086;43.546;26.474;2022-07-29T04:56:59;99326.69;;;25.18;100.00
12051;BME280;6086;43.546;26.474;2022-07-29T04:59:26;99336.09;;;25.07;100.00
12051;BME280;6086;43.546;26.474;2022-07-29T05:01:54;99342.97;;;25.33;100.00
12051;BME280;6086;43.546;26.474;2022-07-29T05:04:21;99342.66;;;25.58;100.00
12051;BME280;6086;43.546;26.474;2022-07-29T05:06:48;99341.81;;;25.39;100.00
12051;BME280;6086;43.546;26.474;2022-07-29T05:09:15;99335.53;;;25.10;100.00
12051;BME280;6086;43.546;26.474;2022-07-29T05:11:42;99336.09;;;25.35;100.00
12051;BME280;6086;43.546;26.474;2022-07-29T05:14:09;99330.94;;;25.52;100.00
12051;BME280;6086;43.546;26.474;2022-07-29T05:16:36;99327.72;;;25.92;100.00
12051;BME280;6086;43.546;26.474;2022-07-29T05:19:06;99338.91;;;26.32;100.00
12051;BME280;6086;43.546;26.474;2022-07-29T05:21:33;99344.47;;;26.46;100.00
12051;BME280;6086;43.546;26.474;2022-07-29T05:24:00;99339.13;;;26.86;100.00
12051;BME280;6086;43.546;26.474;2022-07-29T05:26:27;99349.03;;;27.01;100.00
12051;BME280;6086;43.546;26.474;2022-07-29T05:28:54;99343.63;;;27.09;100.00
12051;BME280;6086;43.546;26.474;2022-07-29T05:31:22;99352.75;;;27.64;98.93
12051;BME280;6086;43.546;26.474;2022-07-29T05:33:49;99349.19;;;27.50;100.00
12051;BME280;6086;43.546;26.474;2022-07-29T05:36:17;99350.63;;;27.34;100.00
12051;BME280;6086;43.546;26.474;2022-07-29T05:38:44;99348.47;;;27.58;100.00
12051;BME280;6086;43.546;26.474;2022-07-29T05:41:11;99359.28;;;27.95;100.00
12051;BME280;6086;43.546;26.474;2022-07-29T05:43:38;99358.97;;;28.45;95.47
12051;BME280;6086;43.546;26.474;2022-07-29T05:46:05;99359.16;;;28.71;87.46
12051;BME280;6086;43.546;26.474;2022-07-29T05:48:31;99356.28;;;28.76;89.28
12051;BME280;6086;43.546;26.474;2022-07-29T05:51:02;99358.22;;;28.75;86.33
12051;BME280;6086;43.546;26.474;2022-07-29T05:53:30;99361.34;;;28.38;86.80
12051;BME280;6086;43.546;26.474;2022-07-29T05:55:57;99362.22;;;27.98;90.61
12051;BME280;6086;43.546;26.474;2022-07-29T05:58:24;99354.19;;;27.75;97.43
12051;BME280;6086;43.546;26.474;2022-07-29T06:01:07;99357.75;;;27.48;98.64
12051;BME280;6086;43.546;26.474;2022-07-29T06:03:34;99354.19;;;27.34;100.00
12051;BME280;6086;43.546;26.474;2022-07-29T06:06:03;99362.63;;;27.24;100.00
12051;BME280;6086;43.546;26.474;2022-07-29T06:08:32;99355.31;;;27.01;100.00
12051;BME280;6086;43.546;26.474;2022-07-29T06:11:00;99347.72;;;27.12;100.00
12051;BME280;6086;43.546;26.474;2022-07-29T06:13:27;99347.41;;;27.00;100.00
12051;BME280;6086;43.546;26.474;2022-07-29T06:15:54;99344.31;;;27.01;100.00
12051;BME280;6086;43.546;26.474;2022-07-29T06:18:21;99351.97;;;27.04;96.88
12051;BME280;6086;43.546;26.474;2022-07-29T06:20:49;99354.88;;;27.13;96.82
12051;BME280;6086;43.546;26.474;2022-07-29T06:23:16;99345.13;;;27.20;98.60
12051;BME280;6086;43.546;26.474;2022-07-29T06:25:50;99343.66;;;27.23;100.00
12051;BME280;6086;43.546;26.474;2022-07-29T06:28:17;99343.59;;;27.55;97.19
12051;BME280;6086;43.546;26.474;2022-07-29T06:30:44;99336.25;;;27.64;86.33
12051;BME280;6086;43.546;26.474;2022-07-29T06:33:17;99334.53;;;27.68;82.61
12051;BME280;6086;43.546;26.474;2022-07-29T06:35:45;99340.03;;;27.81;84.33
12051;BME280;6086;43.546;26.474;2022-07-29T06:38:12;99341.00;;;27.99;79.73
12051;BME280;6086;43.546;26.474;2022-07-29T06:40:41;99336.50;;;28.16;80.68
12051;BME280;6086;43.546;26.474;2022-07-29T06:43:30;99337.19;;;28.22;76.14
12051;BME280;6086;43.546;26.474;2022-07-29T06:46:03;99342.72;;;28.44;75.83
12051;BME280;6086;43.546;26.474;2022-07-29T06:48:30;99344.31;;;28.36;78.83
12051;BME280;6086;43.546;26.474;2022-07-29T06:50:58;99345.88;;;28.51;69.56
12051;BME280;6086;43.546;26.474;2022-07-29T06:53:25;99350.56;;;28.72;71.45
12051;BME280;6086;43.546;26.474;2022-07-29T06:55:52;99342.41;;;28.89;68.74
12051;BME280;6086;43.546;26.474;2022-07-29T06:58:19;99343.50;;;29.02;67.76
12051;BME280;6086;43.546;26.474;2022-07-29T07:00:48;99343.34;;;29.07;65.67
12051;BME280;6086;43.546;26.474;2022-07-29T07:03:15;99339.53;;;29.25;63.36
12051;BME280;6086;43.546;26.474;2022-07-29T07:05:43;99347.22;;;29.36;61.09
12051;BME280;6086;43.546;26.474;2022-07-29T07:08:10;99337.34;;;29.43;60.94
12051;BME280;6086;43.546;26.474;2022-07-29T07:10:38;99342.84;;;29.43;60.29
12051;BME280;6086;43.546;26.474;2022-07-29T07:13:05;99343.50;;;29.40;56.89
12051;BME280;6086;43.546;26.474;2022-07-29T07:15:32;99340.94;;;29.14;59.45
12051;BME280;6086;43.546;26.474;2022-07-29T07:18:00;99344.44;;;28.97;60.11
12051;BME280;6086;43.546;26.474;2022-07-29T07:20:27;99346.88;;;28.99;64.49
12051;BME280;6086;43.546;26.474;2022-07-29T07:22:54;99342.47;;;28.98;62.86
12051;BME280;6086;43.546;26.474;2022-07-29T07:25:21;99339.13;;;29.01;63.13
12051;BME280;6086;43.546;26.474;2022-07-29T07:27:48;99343.03;;;28.86;60.36
12051;BME280;6086;43.546;26.474;2022-07-29T07:30:15;99334.69;;;29.00;64.63
12051;BME280;6086;43.546;26.474;2022-07-29T07:32:42;99331.59;;;29.23;66.53
12051;BME280;6086;43.546;26.474;2022-07-29T07:35:11;99336.34;;;29.31;64.47
12051;BME280;6086;43.546;26.474;2022-07-29T07:37:38;99341.56;;;29.41;65.81
12051;BME280;6086;43.546;26.474;2022-07-29T07:40:07;99335.84;;;29.68;61.24
12051;BME280;6086;43.546;26.474;2022-07-29T07:42:35;99340.44;;;29.89;60.92
12051;BME280;6086;43.546;26.474;2022-07-29T07:45:02;99335.25;;;30.05;58.27
12051;BME280;6086;43.546;26.474;2022-07-29T07:47:28;99332.22;;;30.06;60.96
12051;BME280;6086;43.546;26.474;2022-07-29T07:49:55;99329.72;;;30.05;58.50
12051;BME280;6086;43.546;26.474;2022-07-29T07:52:24;99332.22;;;30.23;56.56
12051;BME280;6086;43.546;26.474;2022-07-29T07:54:51;99332.38;;;30.44;57.13
12051;BME280;6086;43.546;26.474;2022-07-29T07:57:18;99326.53;;;30.45;52.06
12051;BME280;6086;43.546;26.474;2022-07-29T07:59:45;99325.50;;;30.58;55.40
12051;BME280;6086;43.546;26.474;2022-07-29T08:02:12;99332.06;;;30.62;49.27
12051;BME280;6086;43.546;26.474;2022-07-29T08:04:39;99342.63;;;30.60;49.67
12051;BME280;6086;43.546;26.474;2022-07-29T08:07:07;99336.94;;;30.40;48.82
12051;BME280;6086;43.546;26.474;2022-07-29T08:09:35;99326.19;;;30.55;54.22
12051;BME280;6086;43.546;26.474;2022-07-29T08:12:03;99335.16;;;30.61;52.42
12051;BME280;6086;43.546;26.474;2022-07-29T08:14:31;99333.66;;;30.80;52.52
12051;BME280;6086;43.546;26.474;2022-07-29T08:16:58;99325.69;;;30.87;51.35
12051;BME280;6086;43.546;26.474;2022-07-29T08:19:25;99319.16;;;30.83;47.29
12051;BME280;6086;43.546;26.474;2022-07-29T08:21:52;99326.16;;;30.89;50.29
12051;BME280;6086;43.546;26.474;2022-07-29T08:24:20;99321.56;;;31.02;49.31
12051;BME280;6086;43.546;26.474;2022-07-29T08:27:05;99320.56;;;31.15;47.25
12051;BME280;6086;43.546;26.474;2022-07-29T08:29:33;99328.03;;;31.14;46.29
12051;BME280;6086;43.546;26.474;2022-07-29T08:32:00;99326.25;;;31.18;45.34
12051;BME280;6086;43.546;26.474;2022-07-29T08:34:27;99329.16;;;31.22;48.04
12051;BME280;6086;43.546;26.474;2022-07-29T08:36:54;99329.31;;;31.34;47.77
12051;BME280;6086;43.546;26.474;2022-07-29T08:39:22;99328.56;;;31.45;47.44
12051;BME280;6086;43.546;26.474;2022-07-29T08:41:49;99333.47;;;31.48;43.42
12051;BME280;6086;43.546;26.474;2022-07-29T08:44:17;99324.00;;;31.49;44.29
12051;BME280;6086;43.546;26.474;2022-07-29T08:46:44;99315.34;;;31.51;43.58
12051;BME280;6086;43.546;26.474;2022-07-29T08:49:11;99322.56;;;31.43;45.26
12051;BME280;6086;43.546;26.474;2022-07-29T08:51:39;99318.50;;;31.41;44.79
12051;BME280;6086;43.546;26.474;2022-07-29T08:54:08;99307.56;;;31.44;45.60
12051;BME280;6086;43.546;26.474;2022-07-29T08:56:36;99309.25;;;31.66;47.59
12051;BME280;6086;43.546;26.474;2022-07-29T08:59:05;99310.72;;;31.63;45.03
12051;BME280;6086;43.546;26.474;2022-07-29T09:01:37;99299.78;;;31.67;45.74
12051;BME280;6086;43.546;26.474;2022-07-29T09:04:11;99300.25;;;31.77;45.57
12051;BME280;6086;43.546;26.474;2022-07-29T09:06:44;99303.22;;;31.72;42.91
12051;BME280;6086;43.546;26.474;2022-07-29T09:09:12;99305.66;;;31.74;41.91
12051;BME280;6086;43.546;26.474;2022-07-29T09:11:40;99294.78;;;31.60;42.02
12051;BME280;6086;43.546;26.474;2022-07-29T09:14:07;99291.88;;;31.86;46.04
12051;BME280;6086;43.546;26.474;2022-07-29T09:16:52;99294.78;;;31.60;46.18
12051;BME280;6086;43.546;26.474;2022-07-29T09:19:24;99291.00;;;31.65;44.04
12051;BME280;6086;43.546;26.474;2022-07-29T09:21:52;99288.72;;;31.75;43.38
12051;BME280;6086;43.546;26.474;2022-07-29T09:24:28;99286.66;;;31.55;45.26
12051;BME280;6086;43.546;26.474;2022-07-29T09:27:07;99288.72;;;31.67;43.99
12051;BME280;6086;43.546;26.474;2022-07-29T09:29:35;99292.47;;;31.71;42.15
12051;BME280;6086;43.546;26.474;2022-07-29T09:32:07;99289.47;;;31.84;44.24
12051;BME280;6086;43.546;26.474;2022-07-29T09:34:36;99289.84;;;31.95;42.29
12051;BME280;6086;43.546;26.474;2022-07-29T09:37:04;99284.13;;;32.00;42.04
12051;BME280;6086;43.546;26.474;2022-07-29T09:39:33;99289.81;;;32.03;43.00
12051;BME280;6086;43.546;26.474;2022-07-29T09:42:02;99277.75;;;32.20;45.22
12051;BME280;6086;43.546;26.474;2022-07-29T09:44:43;99279.00;;;32.31;42.53
12051;BME280;6086;43.546;26.474;2022-07-29T09:47:12;99286.13;;;32.52;42.25
12051;BME280;6086;43.546;26.474;2022-07-29T09:50:00;99283.75;;;32.63;40.65
12051;BME280;6086;43.546;26.474;2022-07-29T09:52:28;99276.91;;;32.60;41.06
12051;BME280;6086;43.546;26.474;2022-07-29T09:55:04;99275.41;;;32.63;40.48
12051;BME280;6086;43.546;26.474;2022-07-29T09:57:31;99266.34;;;32.42;41.55
12051;BME280;6086;43.546;26.474;2022-07-29T10:03:15;99269.28;;;32.57;43.69
12051;BME280;6086;43.546;26.474;2022-07-29T10:05:44;99268.72;;;32.64;41.32
12051;BME280;6086;43.546;26.474;2022-07-29T10:08:12;99260.22;;;32.81;41.77
12051;BME280;6086;43.546;26.474;2022-07-29T10:10:40;99262.22;;;32.80;40.09
12051;BME280;6086;43.546;26.474;2022-07-29T10:13:09;99266.16;;;32.79;42.02
12051;BME280;6086;43.546;26.474;2022-07-29T10:15:37;99259.66;;;32.87;40.58
12051;BME280;6086;43.546;26.474;2022-07-29T10:18:07;99259.56;;;32.84;39.82
12051;BME280;6086;43.546;26.474;2022-07-29T10:20:36;99262.59;;;32.70;39.14
12051;BME280;6086;43.546;26.474;2022-07-29T10:23:04;99262.81;;;32.53;39.74
12051;BME280;6086;43.546;26.474;2022-07-29T10:25:31;99254.69;;;32.48;41.38
12051;BME280;6086;43.546;26.474;2022-07-29T10:27:58;99245.94;;;32.70;40.93
12051;BME280;6086;43.546;26.474;2022-07-29T10:30:29;99236.09;;;32.93;39.02
12051;BME280;6086;43.546;26.474;2022-07-29T10:33:21;99242.94;;;32.96;38.68
12051;BME280;6086;43.546;26.474;2022-07-29T10:38:45;99242.34;;;33.02;38.65
12051;BME280;6086;43.546;26.474;2022-07-29T10:44:24;99230.44;;;33.02;37.79
12051;BME280;6086;43.546;26.474;2022-07-29T10:46:52;99239.91;;;33.01;38.02
12051;BME280;6086;43.546;26.474;2022-07-29T10:49:21;99234.25;;;33.09;40.20
12051;BME280;6086;43.546;26.474;2022-07-29T10:52:05;99239.03;;;33.32;39.78
12051;BME280;6086;43.546;26.474;2022-07-29T10:54:40;99238.22;;;33.44;38.72
12051;BME280;6086;43.546;26.474;2022-07-29T10:57:16;99230.22;;;33.42;38.77
12051;BME280;6086;43.546;26.474;2022-07-29T10:59:46;99233.81;;;33.43;37.32
12051;BME280;6086;43.546;26.474;2022-07-29T11:02:44;99229.56;;;33.45;37.38
12051;BME280;6086;43.546;26.474;2022-07-29T11:05:14;99231.66;;;33.36;37.33
12051;BME280;6086;43.546;26.474;2022-07-29T11:08:17;99229.88;;;33.44;37.59
12051;BME280;6086;43.546;26.474;2022-07-29T11:10:47;99224.69;;;33.54;38.43
12051;BME280;6086;43.546;26.474;2022-07-29T11:13:44;99224.75;;;33.58;37.33
12051;BME280;6086;43.546;26.474;2022-07-29T11:16:12;99227.53;;;33.58;37.65
12051;BME280;6086;43.546;26.474;2022-07-29T11:21:40;99218.13;;;33.86;37.69
12051;BME280;6086;43.546;26.474;2022-07-29T11:24:15;99217.41;;;34.01;37.88
12051;BME280;6086;43.546;26.474;2022-07-29T11:26:43;99213.81;;;34.01;38.96
12051;BME280;6086;43.546;26.474;2022-07-29T11:29:19;99208.25;;;34.01;36.75
12051;BME280;6086;43.546;26.474;2022-07-29T11:31:49;99205.94;;;34.03;39.01
12051;BME280;6086;43.546;26.474;2022-07-29T11:34:24;99200.81;;;34.05;36.94
12051;BME280;6086;43.546;26.474;2022-07-29T11:37:20;99205.50;;;33.89;36.65
12051;BME280;6086;43.546;26.474;2022-07-29T11:40:16;99211.34;;;33.60;36.05
12051;BME280;6086;43.546;26.474;2022-07-29T11:42:48;99203.84;;;33.48;36.74
12051;BME280;6086;43.546;26.474;2022-07-29T11:45:20;99191.72;;;33.41;35.81
12051;BME280;6086;43.546;26.474;2022-07-29T11:47:52;99181.59;;;33.60;37.69
12051;BME280;6086;43.546;26.474;2022-07-29T11:50:29;99184.13;;;33.77;37.09
12051;BME280;6086;43.546;26.474;2022-07-29T11:52:56;99174.69;;;33.94;37.62
12051;BME280;6086;43.546;26.474;2022-07-29T11:55:25;99174.97;;;34.04;37.20
12051;BME280;6086;43.546;26.474;2022-07-29T11:57:53;99169.63;;;34.11;36.76
12051;BME280;6086;43.546;26.474;2022-07-29T12:00:28;99170.06;;;34.25;35.62
12051;BME280;6086;43.546;26.474;2022-07-29T12:02:56;99175.00;;;34.20;34.61
12051;BME280;6086;43.546;26.474;2022-07-29T12:05:35;99167.28;;;34.13;35.67
12051;BME280;6086;43.546;26.474;2022-07-29T12:08:11;99169.31;;;34.01;35.50
12051;BME280;6086;43.546;26.474;2022-07-29T12:10:41;99166.22;;;34.18;36.80
12051;BME280;6086;43.546;26.474;2022-07-29T12:13:09;99161.72;;;34.25;35.53
12051;BME280;6086;43.546;26.474;2022-07-29T12:15:36;99150.50;;;34.37;36.78
12051;BME280;6086;43.546;26.474;2022-07-29T12:18:15;99152.22;;;34.57;35.80
12051;BME280;6086;43.546;26.474;2022-07-29T12:20:42;99155.03;;;34.73;35.74
12051;BME280;6086;43.546;26.474;2022-07-29T12:23:10;99149.03;;;34.71;34.98
12051;BME280;6086;43.546;26.474;2022-07-29T12:25:41;99148.50;;;34.81;35.55
12051;BME280;6086;43.546;26.474;2022-07-29T12:28:10;99143.91;;;34.88;34.42
12051;BME280;6086;43.546;26.474;2022-07-29T12:30:42;99134.66;;;34.69;34.18
12051;BME280;6086;43.546;26.474;2022-07-29T12:33:11;99142.56;;;34.67;35.10
12051;BME280;6086;43.546;26.474;2022-07-29T12:35:40;99141.94;;;34.73;34.05
12051;BME280;6086;43.546;26.474;2022-07-29T12:38:10;99135.66;;;34.76;34.27
12051;BME280;6086;43.546;26.474;2022-07-29T12:40:37;99128.56;;;34.79;35.09
12051;BME280;6086;43.546;26.474;2022-07-29T12:43:13;99133.75;;;34.96;34.64
12051;BME280;6086;43.546;26.474;2022-07-29T12:45:43;99127.84;;;34.97;34.75
12051;BME280;6086;43.546;26.474;2022-07-29T12:48:11;99121.63;;;35.04;33.65
12051;BME280;6086;43.546;26.474;2022-07-29T12:50:53;99113.81;;;34.94;33.93
12051;BME280;6086;43.546;26.474;2022-07-29T12:53:21;99115.09;;;34.81;33.10
12051;BME280;6086;43.546;26.474;2022-07-29T12:55:50;99111.78;;;34.75;34.15
12051;BME280;6086;43.546;26.474;2022-07-29T12:58:33;99104.13;;;34.88;34.47
12051;BME280;6086;43.546;26.474;2022-07-29T13:01:09;99108.03;;;35.02;34.63
12051;BME280;6086;43.546;26.474;2022-07-29T13:03:58;99104.94;;;34.88;34.18
12051;BME280;6086;43.546;26.474;2022-07-29T13:06:31;99109.34;;;34.89;33.71
12051;BME280;6086;43.546;26.474;2022-07-29T13:09:02;99110.34;;;34.81;34.40
12051;BME280;6086;43.546;26.474;2022-07-29T13:11:30;99109.66;;;35.03;34.72
12051;BME280;6086;43.546;26.474;2022-07-29T13:13:59;99102.94;;;35.04;34.78
12051;BME280;6086;43.546;26.474;2022-07-29T13:16:26;99102.19;;;35.23;35.27
12051;BME280;6086;43.546;26.474;2022-07-29T13:19:10;99097.69;;;35.18;34.18
12051;BME280;6086;43.546;26.474;2022-07-29T13:21:38;99105.66;;;35.01;32.69
12051;BME280;6086;43.546;26.474;2022-07-29T13:24:06;99092.25;;;35.06;33.77
12051;BME280;6086;43.546;26.474;2022-07-29T13:26:34;99091.41;;;35.21;35.44
12051;BME280;6086;43.546;26.474;2022-07-29T13:29:03;99093.16;;;34.95;33.57
12051;BME280;6086;43.546;26.474;2022-07-29T13:31:30;99093.63;;;34.81;34.21
12051;BME280;6086;43.546;26.474;2022-07-29T13:33:57;99089.59;;;34.63;33.41